Time,TemperatureF,DewpointF,PressureIn,WindDirection,WindDirectionDegrees,WindSpeedMPH,WindSpeedGustMPH,Humidity,HourlyPrecipIn,Conditions,Clouds,dailyrainin,SoftwareType,DateUTC
2013-08-16 00:13:00,61.0,52.0,30.13,West,280,3.0,11.0,73,0.00,,,0.00,,2013-08-16 04:13:00,
2013-08-16 00:23:00,60.0,50.0,30.10,WNW,290,2.0,11.0,70,0.00,,,0.00,,2013-08-16 04:23:00,
2013-08-16 00:42:00,61.0,51.0,30.13,WSW,240,3.0,8.0,69,0.00,,,0.00,,2013-08-16 04:42:00,
2013-08-16 00:54:00,60.0,51.0,30.13,West,262,2.0,6.0,71,0.00,,,0.00,,2013-08-16 04:54:00,
2013-08-16 01:12:00,60.0,51.0,30.13,West,272,2.0,7.0,72,0.00,,,0.00,,2013-08-16 05:12:00,
2013-08-16 01:22:00,59.0,50.0,30.12,West,276,2.0,5.0,72,0.00,,,0.00,,2013-08-16 05:22:00,
2013-08-16 01:42:00,59.0,50.0,30.12,West,263,2.0,5.0,73,0.00,,,0.00,,2013-08-16 05:42:00,
2013-08-16 03:00:00,59.0,50.0,30.12,WSW,238,2.0,6.0,71,0.00,,,0.00,,2013-08-16 07:00:00,
2013-08-16 03:11:00,59.0,50.0,30.12,WSW,241,1.0,4.0,72,0.00,,,0.00,,2013-08-16 07:11:00,
2013-08-16 03:21:00,58.0,49.0,30.09,WSW,238,3.0,9.0,72,0.00,,,0.00,,2013-08-16 07:21:00,
2013-08-16 03:42:00,59.0,50.0,30.11,West,261,3.0,10.0,71,0.00,,,0.00,,2013-08-16 07:42:00,
2013-08-16 03:52:00,59.0,50.0,30.12,WSW,249,3.0,6.0,72,0.00,,,0.00,,2013-08-16 07:52:00,
2013-08-16 04:11:00,59.0,50.0,30.12,SW,216,4.0,7.0,73,0.00,,,0.00,,2013-08-16 08:11:00,
2013-08-16 04:21:00,58.0,50.0,30.12,WSW,246,3.0,9.0,74,0.00,,,0.00,,2013-08-16 08:21:00,
2013-08-16 04:42:00,58.0,50.0,30.12,WSW,256,2.0,6.0,75,0.00,,,0.00,,2013-08-16 08:42:00,
2013-08-16 04:52:00,58.0,50.0,30.12,SSW,212,1.0,5.0,75,0.00,,,0.00,,2013-08-16 08:52:00,
2013-08-16 05:11:00,57.0,50.0,30.12,West,277,2.0,5.0,78,0.00,,,0.00,,2013-08-16 09:11:00,
2013-08-16 05:21:00,57.0,51.0,30.12,SW,227,4.0,9.0,79,0.00,,,0.00,,2013-08-16 09:21:00,
2013-08-16 05:42:00,57.0,50.0,30.13,WNW,289,3.0,9.0,77,0.00,,,0.00,,2013-08-16 09:42:00,
2013-08-16 06:13:00,58.0,50.0,30.13,WSW,249,5.0,10.0,74,0.00,,,0.00,,2013-08-16 10:13:00,
2013-08-16 06:23:00,58.0,50.0,30.11,WSW,239,5.0,9.0,75,0.00,,,0.00,,2013-08-16 10:23:00,
2013-08-16 06:42:00,57.0,50.0,30.14,WSW,258,2.0,5.0,78,0.00,,,0.00,,2013-08-16 10:42:00,
2013-08-16 07:12:00,57.0,50.0,30.15,West,263,3.0,6.0,78,0.00,,,0.00,,2013-08-16 11:12:00,
2013-08-16 08:12:00,59.0,51.0,30.16,SSW,211,3.0,8.0,76,0.00,,,0.00,,2013-08-16 12:12:00,
2013-08-16 08:21:00,59.0,51.0,30.16,NW,315,2.0,6.0,75,0.00,,,0.00,,2013-08-16 12:21:00,
2013-08-16 09:22:00,62.0,53.0,30.13,WSW,242,2.0,6.0,73,0.00,,,0.00,,2013-08-16 13:22:00,
2013-08-16 09:53:00,63.0,55.0,30.16,WSW,258,2.0,5.0,74,0.00,,,0.00,,2013-08-16 13:53:00,
2013-08-16 10:11:00,64.0,55.0,30.16,NW,321,2.0,5.0,72,0.00,,,0.00,,2013-08-16 14:11:00,
2013-08-16 10:22:00,65.0,56.0,30.16,WNW,286,1.0,5.0,72,0.00,,,0.00,,2013-08-16 14:22:00,
2013-08-16 10:42:00,66.0,56.0,30.16,NNW,334,2.0,6.0,70,0.00,,,0.00,,2013-08-16 14:42:00,
2013-08-16 10:52:00,66.0,55.0,30.16,WNW,284,2.0,6.0,68,0.00,,,0.00,,2013-08-16 14:52:00,
2013-08-16 11:12:00,66.0,54.0,30.16,NNW,332,2.0,6.0,66,0.00,,,0.00,,2013-08-16 15:12:00,
2013-08-16 11:22:00,67.0,56.0,30.16,SW,221,2.0,6.0,67,0.00,,,0.00,,2013-08-16 15:22:00,
2013-08-16 11:43:00,67.0,54.0,30.17,West,277,4.0,10.0,64,0.00,,,0.00,,2013-08-16 15:43:00,
2013-08-16 11:56:00,68.0,56.0,30.17,West,270,4.0,9.0,65,0.00,,,0.00,,2013-08-16 15:56:00,
2013-08-16 12:13:00,68.0,54.0,30.17,West,275,2.0,7.0,61,0.00,,,0.00,,2013-08-16 16:13:00,
2013-08-16 12:23:00,69.0,54.0,30.17,NW,310,4.0,8.0,58,0.00,,,0.00,,2013-08-16 16:23:00,
2013-08-16 12:43:00,69.0,55.0,30.14,WSW,247,3.0,9.0,60,0.00,,,0.00,,2013-08-16 16:43:00,
2013-08-16 12:57:00,69.0,54.0,30.14,WNW,282,4.0,9.0,59,0.00,,,0.00,,2013-08-16 16:57:00,
2013-08-16 13:13:00,69.0,55.0,30.17,WSW,257,2.0,9.0,61,0.00,,,0.00,,2013-08-16 17:13:00,
2013-08-16 13:28:00,69.0,54.0,30.17,WNW,286,4.0,9.0,59,0.00,,,0.00,,2013-08-16 17:28:00,
2013-08-16 13:47:00,70.0,55.0,30.16,WNW,284,2.0,8.0,59,0.00,,,0.00,,2013-08-16 17:47:00,
2013-08-16 14:00:00,70.0,55.0,30.17,WNW,286,3.0,8.0,58,0.00,,,0.00,,2013-08-16 18:00:00,
2013-08-16 14:15:00,69.0,55.0,30.16,NNW,341,2.0,6.0,61,0.00,,,0.00,,2013-08-16 18:15:00,
2013-08-16 14:28:00,69.0,55.0,30.16,North,2,1.0,3.0,62,0.00,,,0.00,,2013-08-16 18:28:00,
2013-08-16 14:50:00,-999.0,-99.9,30.16,WSW,246,3.0,8.0,59,0.00,,,0.00,,2013-08-16 18:50:00,
2013-08-16 15:14:00,71.0,54.0,30.17,NNW,334,2.0,7.0,56,0.00,,,0.00,,2013-08-16 19:14:00,
2013-08-16 15:25:00,70.0,55.0,30.17,WNW,286,0.0,3.0,58,0.00,,,0.00,,2013-08-16 19:25:00,
2013-08-16 15:46:00,70.0,55.0,30.16,West,265,2.0,5.0,58,0.00,,,0.00,,2013-08-16 19:46:00,
2013-08-16 15:55:00,70.0,54.0,30.13,West,263,1.0,5.0,57,0.00,,,0.00,,2013-08-16 19:55:00,
2013-08-16 16:11:00,70.0,55.0,30.12,West,275,1.0,4.0,59,0.00,,,0.00,,2013-08-16 20:11:00,
2013-08-16 16:23:00,72.0,54.0,30.16,WNW,301,2.0,7.0,53,0.00,,,0.00,,2013-08-16 20:23:00,
2013-08-16 16:44:00,71.0,54.0,30.16,WSW,254,1.0,4.0,56,0.00,,,0.00,,2013-08-16 20:44:00,
2013-08-16 16:52:00,73.0,56.0,30.16,NNW,336,2.0,4.0,56,0.00,,,0.00,,2013-08-16 20:52:00,
2013-08-16 17:11:00,72.0,56.0,30.16,West,260,1.0,3.0,57,0.00,,,0.00,,2013-08-16 21:11:00,
2013-08-16 17:25:00,72.0,55.0,30.16,WNW,285,2.0,4.0,55,0.00,,,0.00,,2013-08-16 21:25:00,
2013-08-16 17:40:00,-999.0,-99.9,30.16,WNW,284,2.0,4.0,-999,0.00,,,0.00,,2013-08-16 21:40:00,
2013-08-16 17:54:00,74.0,56.0,30.17,West,263,2.0,5.0,53,0.00,,,0.00,,2013-08-16 21:54:00,
2013-08-16 18:13:00,74.0,58.0,30.17,WSW,244,1.0,6.0,57,0.00,,,0.00,,2013-08-16 22:13:00,
2013-08-16 18:24:00,74.0,56.0,30.17,West,264,1.0,5.0,53,0.00,,,0.00,,2013-08-16 22:24:00,
2013-08-16 18:43:00,73.0,55.0,30.17,West,279,2.0,5.0,53,0.00,,,0.00,,2013-08-16 22:43:00,
2013-08-16 18:52:00,73.0,56.0,30.13,WSW,242,2.0,5.0,55,0.00,,,0.00,,2013-08-16 22:52:00,
2013-08-16 19:12:00,73.0,56.0,30.17,West,270,2.0,5.0,56,0.00,,,0.00,,2013-08-16 23:12:00,
2013-08-16 19:23:00,72.0,56.0,30.18,WSW,249,1.0,4.0,58,0.00,,,0.00,,2013-08-16 23:23:00,
2013-08-16 19:42:00,71.0,56.0,30.19,WSW,239,3.0,5.0,59,0.00,,,0.00,,2013-08-16 23:42:00,
2013-08-16 19:52:00,69.0,55.0,30.19,WSW,248,3.0,5.0,62,0.00,,,0.00,,2013-08-16 23:52:00,
2013-08-16 20:12:00,68.0,55.0,30.19,WSW,255,1.0,5.0,63,0.00,,,0.00,,2013-08-17 00:12:00,
2013-08-16 20:21:00,67.0,54.0,30.19,WSW,258,1.0,4.0,64,0.00,,,0.00,,2013-08-17 00:21:00,
2013-08-16 20:42:00,66.0,54.0,30.19,NE,55,2.0,5.0,65,0.00,,,0.00,,2013-08-17 00:42:00,
2013-08-16 20:52:00,66.0,53.0,30.19,WSW,257,1.0,7.0,64,0.00,,,0.00,,2013-08-17 00:52:00,
2013-08-16 21:11:00,66.0,54.0,30.20,SSE,154,2.0,5.0,65,0.00,,,0.00,,2013-08-17 01:11:00,
2013-08-16 21:21:00,65.0,54.0,30.21,WSW,249,1.0,3.0,68,0.00,,,0.00,,2013-08-17 01:21:00,
2013-08-16 21:42:00,66.0,55.0,30.22,WSW,258,2.0,11.0,68,0.00,,,0.00,,2013-08-17 01:42:00,
2013-08-16 21:52:00,65.0,55.0,30.22,WSW,237,2.0,6.0,69,0.00,,,0.00,,2013-08-17 01:52:00,
2013-08-16 22:11:00,65.0,55.0,30.18,WNW,291,1.0,6.0,70,0.00,,,0.00,,2013-08-17 02:11:00,
2013-08-16 22:21:00,65.0,55.0,30.21,West,272,1.0,4.0,71,0.00,,,0.00,,2013-08-17 02:21:00,
2013-08-16 22:42:00,65.0,55.0,30.22,WSW,254,1.0,4.0,71,0.00,,,0.00,,2013-08-17 02:42:00,
2013-08-16 22:52:00,65.0,56.0,30.22,West,266,1.0,5.0,72,0.00,,,0.00,,2013-08-17 02:52:00,
2013-08-16 23:11:00,64.0,55.0,30.22,West,263,0.0,2.0,72,0.00,,,0.00,,2013-08-17 03:11:00,
2013-08-16 23:22:00,63.0,55.0,30.22,West,263,0.0,1.0,76,0.00,,,0.00,,2013-08-17 03:22:00,
2013-08-16 23:43:00,62.0,54.0,30.22,West,265,1.0,2.0,75,0.00,,,0.00,,2013-08-17 03:43:00,
2013-08-16 23:53:00,62.0,55.0,30.22,WNW,286,0.0,0.0,77,0.00,,,0.00,,2013-08-17 03:53:00,